createdAt,value
2016-10-27T00:00:27.653Z,0
2016-10-27T00:01:39.081Z,0
2016-10-27T00:02:51.720Z,0
2016-10-27T00:04:04.174Z,0
2016-10-27T00:05:16.621Z,0
2016-10-27T00:06:29.656Z,0
2016-10-27T00:07:42.135Z,0
2016-10-27T00:08:55.631Z,0
2016-10-27T00:10:09.197Z,0
2016-10-27T00:11:20.722Z,0
2016-10-27T00:12:33.157Z,0
2016-10-27T00:13:45.791Z,0
2016-10-27T00:14:57.836Z,0
2016-10-27T00:16:09.811Z,0
2016-10-27T00:17:22.315Z,0
2016-10-27T00:18:34.745Z,0
2016-10-27T00:19:47.756Z,0
2016-10-27T00:21:00.775Z,0
2016-10-27T00:22:13.272Z,0
2016-10-27T00:23:26.858Z,0
2016-10-27T00:24:39.434Z,0
2016-10-27T00:25:51.355Z,0
2016-10-27T00:27:04.348Z,0
2016-10-27T00:28:16.823Z,0
2016-10-27T00:29:29.383Z,0
2016-10-27T00:30:42.025Z,0
2016-10-27T00:31:54.546Z,0
2016-10-27T00:33:08.112Z,0
2016-10-27T00:34:21.662Z,0
2016-10-27T00:35:34.274Z,0
2016-10-27T00:36:46.818Z,0
2016-10-27T00:37:59.254Z,0
2016-10-27T00:39:11.740Z,0
2016-10-27T00:40:24.874Z,0
2016-10-27T00:41:37.853Z,0
2016-10-27T00:42:50.824Z,0
2016-10-27T00:44:03.316Z,0
2016-10-27T00:45:16.917Z,0
2016-10-27T00:46:30.585Z,0
2016-10-27T00:47:43.555Z,0
2016-10-27T00:48:56.764Z,0
2016-10-27T00:50:08.746Z,0
2016-10-27T00:51:21.806Z,0
2016-10-27T00:52:33.741Z,0
2016-10-27T00:53:46.195Z,0
2016-10-27T00:54:58.635Z,0
2016-10-27T00:56:11.655Z,0
2016-10-27T00:57:24.332Z,0
2016-10-27T00:58:36.786Z,0
2016-10-27T00:59:49.253Z,0
2016-10-27T01:01:01.179Z,0
2016-10-27T01:02:13.166Z,0
2016-10-27T01:03:25.644Z,0
2016-10-27T01:04:38.138Z,0
2016-10-27T01:05:50.098Z,0
2016-10-27T01:07:02.592Z,0
2016-10-27T01:08:15.144Z,0
2016-10-27T01:09:27.625Z,0
2016-10-27T01:10:40.635Z,0
2016-10-27T01:11:53.111Z,0
2016-10-27T01:13:05.579Z,0
2016-10-27T01:14:17.563Z,0
2016-10-27T01:15:29.475Z,0
2016-10-27T01:16:41.884Z,0
2016-10-27T01:17:54.955Z,0
2016-10-27T01:19:07.587Z,0
2016-10-27T01:20:20.010Z,0
2016-10-27T01:21:31.997Z,0
2016-10-27T01:22:44.534Z,0
2016-10-27T01:23:57.686Z,0
2016-10-27T01:25:10.195Z,0
2016-10-27T01:26:23.252Z,0
2016-10-27T01:27:36.247Z,0
2016-10-27T01:28:48.763Z,0
2016-10-27T01:30:01.284Z,0
2016-10-27T01:31:14.389Z,0
2016-10-27T01:32:26.326Z,0
2016-10-27T01:33:38.299Z,0
2016-10-27T01:34:50.814Z,0
2016-10-27T01:36:03.837Z,0
2016-10-27T01:37:15.283Z,0
2016-10-27T01:38:28.326Z,0
2016-10-27T01:39:40.865Z,0
2016-10-27T01:40:54.504Z,0
2016-10-27T01:42:06.533Z,0
2016-10-27T01:43:20.097Z,0
2016-10-27T01:44:32.545Z,0
2016-10-27T01:45:46.223Z,0
2016-10-27T01:46:57.707Z,0
2016-10-27T01:48:10.772Z,0
2016-10-27T01:49:23.805Z,0
2016-10-27T01:50:36.217Z,0
2016-10-27T01:51:49.893Z,0
2016-10-27T01:53:02.946Z,0
2016-10-27T01:54:14.903Z,0
2016-10-27T01:55:27.882Z,0
2016-10-27T01:56:40.916Z,0
2016-10-27T01:57:53.357Z,0
2016-10-27T01:59:05.848Z,0
2016-10-27T02:00:17.806Z,0
2016-10-27T02:01:30.246Z,0
2016-10-27T02:02:43.483Z,0
2016-10-27T02:03:55.956Z,0
2016-10-27T02:05:07.883Z,0
2016-10-27T02:06:20.919Z,0
2016-10-27T02:07:34.820Z,0
2016-10-27T02:08:48.360Z,0
2016-10-27T02:10:00.817Z,0
2016-10-27T02:11:14.339Z,0
2016-10-27T02:12:26.876Z,0
2016-10-27T02:13:38.979Z,0
2016-10-27T02:14:52.448Z,0
2016-10-27T02:16:05.445Z,0
2016-10-27T02:17:17.900Z,0
2016-10-27T02:18:31.414Z,0
2016-10-27T02:19:43.897Z,0
2016-10-27T02:20:56.972Z,0
2016-10-27T02:22:08.970Z,0
2016-10-27T02:23:22.075Z,0
2016-10-27T02:24:35.778Z,0
2016-10-27T02:25:48.779Z,0
2016-10-27T02:27:00.724Z,0
2016-10-27T02:28:13.226Z,0
2016-10-27T02:29:25.324Z,0
2016-10-27T02:30:37.854Z,0
2016-10-27T02:31:50.852Z,0
2016-10-27T02:33:03.841Z,0
2016-10-27T02:34:15.832Z,0
2016-10-27T02:35:28.450Z,0
2016-10-27T02:36:40.937Z,0
2016-10-27T02:37:52.887Z,0
2016-10-27T02:39:05.336Z,0
2016-10-27T02:40:18.455Z,0
2016-10-27T02:41:29.878Z,0
2016-10-27T02:42:42.875Z,0
2016-10-27T02:43:56.326Z,0
2016-10-27T02:45:08.789Z,0
2016-10-27T02:46:22.495Z,0
2016-10-27T02:47:33.339Z,0
2016-10-27T02:48:46.816Z,0
2016-10-27T02:50:00.347Z,0
2016-10-27T02:51:12.903Z,0
2016-10-27T02:52:25.927Z,0
2016-10-27T02:53:38.393Z,0
2016-10-27T02:54:50.932Z,0
2016-10-27T02:56:02.884Z,0
2016-10-27T02:57:15.040Z,0
2016-10-27T02:58:28.067Z,0
2016-10-27T02:59:41.079Z,0
2016-10-27T03:00:54.153Z,0
2016-10-27T03:02:07.161Z,0
2016-10-27T03:03:18.610Z,0
2016-10-27T03:04:31.651Z,0
2016-10-27T03:05:44.105Z,0
2016-10-27T03:06:57.128Z,0
2016-10-27T03:08:09.762Z,0
2016-10-27T03:09:22.809Z,0
2016-10-27T03:10:35.828Z,0
2016-10-27T03:11:47.758Z,0
2016-10-27T03:13:01.560Z,0
2016-10-27T03:14:15.125Z,0
2016-10-27T03:15:28.113Z,0
2016-10-27T03:16:41.614Z,0
2016-10-27T03:17:54.075Z,0
2016-10-27T03:19:06.150Z,0
2016-10-27T03:20:18.605Z,0
2016-10-27T03:21:31.094Z,0
2016-10-27T03:22:42.541Z,0
2016-10-27T03:23:54.432Z,0
2016-10-27T03:25:07.425Z,0
2016-10-27T03:26:20.462Z,0
2016-10-27T03:27:34.055Z,0
2016-10-27T03:28:46.011Z,0
2016-10-27T03:29:58.029Z,0
2016-10-27T03:31:10.523Z,0
2016-10-27T03:32:24.060Z,0
2016-10-27T03:33:37.604Z,0
2016-10-27T03:34:50.090Z,0
2016-10-27T03:36:03.124Z,0
2016-10-27T03:37:15.097Z,0
2016-10-27T03:38:27.601Z,0
2016-10-27T03:39:40.077Z,0
2016-10-27T03:40:52.669Z,0
2016-10-27T03:42:06.169Z,0
2016-10-27T03:43:19.116Z,0
2016-10-27T03:44:32.613Z,0
2016-10-27T03:45:44.559Z,0
2016-10-27T03:46:58.130Z,0
2016-10-27T03:48:11.192Z,0
2016-10-27T03:49:24.177Z,0
2016-10-27T03:50:36.614Z,0
2016-10-27T03:51:50.230Z,0
2016-10-27T03:53:03.195Z,0
2016-10-27T03:54:16.787Z,0
2016-10-27T03:55:28.686Z,0
2016-10-27T03:56:41.138Z,0
2016-10-27T03:57:54.622Z,0
2016-10-27T03:59:08.214Z,0
2016-10-27T04:00:21.733Z,0
2016-10-27T04:01:34.708Z,0
2016-10-27T04:02:47.768Z,0
2016-10-27T04:04:01.335Z,0
2016-10-27T04:05:12.732Z,0
2016-10-27T04:06:24.689Z,0
2016-10-27T04:07:37.651Z,0
2016-10-27T04:08:50.634Z,0
2016-10-27T04:10:02.582Z,0
2016-10-27T04:11:14.502Z,0
2016-10-27T04:12:27.576Z,0
2016-10-27T04:13:40.169Z,0
2016-10-27T04:14:52.156Z,0
2016-10-27T04:16:04.062Z,0
2016-10-27T04:17:15.984Z,0
2016-10-27T04:18:27.882Z,0
2016-10-27T04:19:40.990Z,0
2016-10-27T04:20:53.941Z,0
2016-10-27T04:22:06.941Z,0
2016-10-27T04:23:19.924Z,0
2016-10-27T04:24:32.050Z,0
2016-10-27T04:25:45.093Z,0
2016-10-27T04:26:58.118Z,0
2016-10-27T04:28:11.093Z,0
2016-10-27T04:29:24.654Z,0
2016-10-27T04:30:37.656Z,0
2016-10-27T04:31:50.137Z,0
2016-10-27T04:33:02.618Z,0
2016-10-27T04:34:14.619Z,0
2016-10-27T04:35:27.298Z,0
2016-10-27T04:36:40.295Z,0
2016-10-27T04:37:52.209Z,0
2016-10-27T04:39:04.751Z,0
2016-10-27T04:40:16.808Z,0
2016-10-27T04:41:29.335Z,0
2016-10-27T04:42:41.284Z,0
2016-10-27T04:43:53.168Z,0
2016-10-27T04:45:06.741Z,0
2016-10-27T04:46:19.328Z,0
2016-10-27T04:47:31.849Z,0
2016-10-27T04:48:43.836Z,0
2016-10-27T04:49:56.844Z,0
2016-10-27T04:51:09.805Z,0
2016-10-27T04:52:21.807Z,0
2016-10-27T04:53:33.783Z,0
2016-10-27T04:54:45.722Z,0
2016-10-27T04:55:58.231Z,0
2016-10-27T04:57:10.862Z,0
2016-10-27T04:58:23.862Z,0
2016-10-27T04:59:36.835Z,0
2016-10-27T05:00:48.766Z,0
2016-10-27T05:02:01.881Z,0
2016-10-27T05:03:14.321Z,0
2016-10-27T05:04:27.273Z,0
2016-10-27T05:05:39.205Z,0
2016-10-27T05:06:51.647Z,0
2016-10-27T05:08:04.286Z,0
2016-10-27T05:09:17.803Z,0
2016-10-27T05:10:30.271Z,0
2016-10-27T05:11:43.830Z,0
2016-10-27T05:12:56.978Z,0
2016-10-27T05:14:10.555Z,0
2016-10-27T05:15:23.551Z,0
2016-10-27T05:16:35.980Z,0
2016-10-27T05:17:48.455Z,0
2016-10-27T05:19:01.107Z,0
2016-10-27T05:20:12.591Z,0
2016-10-27T05:21:26.138Z,0
2016-10-27T05:22:38.599Z,0
2016-10-27T05:23:50.192Z,0
2016-10-27T05:25:03.215Z,0
2016-10-27T05:26:15.678Z,0
2016-10-27T05:27:28.187Z,0
2016-10-27T05:28:40.657Z,0
2016-10-27T05:29:53.762Z,0
2016-10-27T05:31:06.230Z,0
2016-10-27T05:32:18.752Z,0
2016-10-27T05:33:31.820Z,0
2016-10-27T05:34:44.264Z,0
2016-10-27T05:35:57.238Z,0
2016-10-27T05:37:10.759Z,0
2016-10-27T05:38:22.722Z,0
2016-10-27T05:39:34.686Z,0
2016-10-27T05:40:47.805Z,0
2016-10-27T05:42:01.335Z,0
2016-10-27T05:43:13.885Z,0
2016-10-27T05:44:27.421Z,0
2016-10-27T05:45:39.404Z,0
2016-10-27T05:46:52.405Z,0
2016-10-27T05:48:05.974Z,0
2016-10-27T05:49:19.620Z,0
2016-10-27T05:50:33.222Z,0
2016-10-27T05:51:46.367Z,0
2016-10-27T05:52:59.925Z,0
2016-10-27T05:54:12.923Z,0
2016-10-27T05:55:25.939Z,0
2016-10-27T05:56:39.579Z,0
2016-10-27T05:57:51.591Z,0
2016-10-27T05:59:04.079Z,0
2016-10-27T06:00:17.092Z,0
2016-10-27T06:01:29.614Z,0
2016-10-27T06:02:42.790Z,0
2016-10-27T06:03:55.803Z,0
2016-10-27T06:05:08.232Z,0
2016-10-27T06:06:19.735Z,0
2016-10-27T06:07:32.347Z,0
2016-10-27T06:08:44.864Z,0
2016-10-27T06:09:58.600Z,0
2016-10-27T06:11:11.029Z,0
2016-10-27T06:12:22.992Z,0
2016-10-27T06:13:36.095Z,0
2016-10-27T06:14:48.623Z,0
2016-10-27T06:16:02.184Z,0
2016-10-27T06:17:14.644Z,0
2016-10-27T06:18:28.131Z,0
2016-10-27T06:19:41.131Z,0
2016-10-27T06:20:54.118Z,0
2016-10-27T06:22:06.564Z,0
2016-10-27T06:23:19.635Z,0
2016-10-27T06:24:32.744Z,0
2016-10-27T06:25:45.232Z,0
2016-10-27T06:26:58.316Z,0
2016-10-27T06:28:10.738Z,0
2016-10-27T06:29:23.181Z,0
2016-10-27T06:30:36.261Z,0
2016-10-27T06:31:48.742Z,0
2016-10-27T06:33:01.796Z,0
2016-10-27T06:34:14.272Z,0
2016-10-27T06:35:26.822Z,0
2016-10-27T06:36:38.745Z,0
2016-10-27T06:37:51.769Z,0
2016-10-27T06:39:04.806Z,0
2016-10-27T06:40:17.798Z,0
2016-10-27T06:41:29.733Z,0
2016-10-27T06:42:42.211Z,0
2016-10-27T06:43:54.746Z,0
2016-10-27T06:45:07.269Z,0
2016-10-27T06:46:19.369Z,0
2016-10-27T06:47:31.325Z,0
2016-10-27T06:48:44.575Z,0
2016-10-27T06:49:56.063Z,0
2016-10-27T06:51:08.541Z,0
2016-10-27T06:52:22.010Z,0
2016-10-27T06:53:34.550Z,0
2016-10-27T06:54:47.033Z,0
2016-10-27T06:55:59.493Z,0
2016-10-27T06:57:11.484Z,0
2016-10-27T06:58:23.963Z,0
2016-10-27T06:59:36.972Z,0
2016-10-27T07:00:48.393Z,0
2016-10-27T07:02:00.342Z,0
2016-10-27T07:03:12.993Z,0
2016-10-27T07:04:26.271Z,0
2016-10-27T07:05:39.280Z,0
2016-10-27T07:06:52.903Z,0
2016-10-27T07:08:05.464Z,0
2016-10-27T07:09:18.504Z,0
2016-10-27T07:10:31.469Z,0
2016-10-27T07:11:45.055Z,0
2016-10-27T07:12:58.552Z,0
2016-10-27T07:14:11.165Z,0
2016-10-27T07:15:23.145Z,0
2016-10-27T07:16:34.702Z,0
2016-10-27T07:17:48.168Z,0
2016-10-27T07:19:01.301Z,0
2016-10-27T07:20:13.278Z,0
2016-10-27T07:21:25.725Z,0
2016-10-27T07:22:38.284Z,0
2016-10-27T07:23:51.387Z,0
2016-10-27T07:25:04.036Z,0
2016-10-27T07:26:16.426Z,0
2016-10-27T07:27:27.838Z,0
2016-10-27T07:28:40.890Z,0
2016-10-27T07:29:53.338Z,0
2016-10-27T07:31:05.809Z,0
2016-10-27T07:32:19.424Z,0
2016-10-27T07:33:32.418Z,0
2016-10-27T07:34:43.867Z,0
2016-10-27T07:35:56.909Z,0
2016-10-27T07:37:09.856Z,0
2016-10-27T07:38:22.338Z,0
2016-10-27T07:39:35.332Z,0
2016-10-27T07:40:47.303Z,0
2016-10-27T07:42:00.262Z,0
2016-10-27T07:43:13.774Z,0
2016-10-27T07:44:27.281Z,0
2016-10-27T07:45:39.714Z,0
2016-10-27T07:46:51.775Z,0
2016-10-27T07:48:04.246Z,0
2016-10-27T07:49:16.209Z,0
2016-10-27T07:50:27.647Z,0
2016-10-27T07:51:40.673Z,0
2016-10-27T07:52:54.127Z,0
2016-10-27T07:54:07.092Z,0
2016-10-27T07:55:19.548Z,0
2016-10-27T07:56:32.044Z,0
2016-10-27T07:57:45.690Z,0
2016-10-27T07:58:57.645Z,0
2016-10-27T08:00:09.052Z,0
2016-10-27T08:01:22.018Z,0
2016-10-27T08:02:35.616Z,0
2016-10-27T08:03:47.619Z,0
2016-10-27T08:05:00.606Z,0
2016-10-27T08:06:13.080Z,0
2016-10-27T08:07:25.635Z,0
2016-10-27T08:08:38.168Z,0
2016-10-27T08:09:50.622Z,0
2016-10-27T08:11:03.627Z,0
2016-10-27T08:12:16.154Z,0
2016-10-27T08:13:28.227Z,0
2016-10-27T08:14:40.131Z,0
2016-10-27T08:15:52.657Z,0
2016-10-27T08:17:05.703Z,0
2016-10-27T08:18:18.857Z,0
2016-10-27T08:19:30.899Z,0
2016-10-27T08:20:43.418Z,0
2016-10-27T08:21:56.448Z,0
2016-10-27T08:23:08.896Z,0
2016-10-27T08:24:21.507Z,0
2016-10-27T08:25:34.610Z,0
2016-10-27T08:26:47.160Z,0
2016-10-27T08:27:59.136Z,0
2016-10-27T08:29:12.171Z,0
2016-10-27T08:30:24.786Z,0
2016-10-27T08:31:37.255Z,0
2016-10-27T08:32:50.805Z,0
2016-10-27T08:34:02.769Z,0
2016-10-27T08:35:14.790Z,5
2016-10-27T08:36:27.265Z,5
2016-10-27T08:37:40.254Z,5
2016-10-27T08:38:53.274Z,5
2016-10-27T08:40:06.300Z,5
2016-10-27T08:41:18.383Z,5
2016-10-27T08:42:31.344Z,5
2016-10-27T08:43:44.292Z,5
2016-10-27T08:44:57.287Z,5
2016-10-27T08:46:11.024Z,5
2016-10-27T08:47:24.022Z,5
2016-10-27T08:48:37.520Z,5
2016-10-27T08:49:49.988Z,5
2016-10-27T08:51:03.044Z,5
2016-10-27T08:52:16.088Z,5
2016-10-27T08:53:28.583Z,10
2016-10-27T08:54:41.100Z,10
2016-10-27T08:55:53.622Z,10
2016-10-27T08:57:06.651Z,10
2016-10-27T08:58:19.180Z,10
2016-10-27T08:59:31.712Z,10
2016-10-27T09:00:43.828Z,10
2016-10-27T09:01:57.905Z,10
2016-10-27T09:03:11.914Z,10
2016-10-27T09:04:24.913Z,10
2016-10-27T09:05:38.041Z,10
2016-10-27T09:06:51.220Z,10
2016-10-27T09:08:03.198Z,10
2016-10-27T09:09:16.180Z,10
2016-10-27T09:10:29.015Z,15
2016-10-27T09:11:42.367Z,15
2016-10-27T09:12:54.236Z,15
2016-10-27T09:14:07.339Z,15
2016-10-27T09:15:20.621Z,15
2016-10-27T09:16:33.097Z,15
2016-10-27T09:17:45.116Z,5
2016-10-27T09:18:58.407Z,5
2016-10-27T09:20:10.007Z,10
2016-10-27T09:21:23.055Z,10
2016-10-27T09:22:36.155Z,10
2016-10-27T09:23:47.792Z,10
2016-10-27T09:25:01.129Z,10
2016-10-27T09:26:14.201Z,10
2016-10-27T09:27:26.475Z,10
2016-10-27T09:28:39.463Z,10
2016-10-27T09:29:52.595Z,10
2016-10-27T09:31:05.639Z,10
2016-10-27T09:32:18.875Z,10
2016-10-27T09:33:32.018Z,10
2016-10-27T09:34:44.481Z,10
2016-10-27T09:35:56.579Z,10
2016-10-27T09:37:09.102Z,10
2016-10-27T09:38:21.265Z,10
2016-10-27T09:39:34.321Z,10
2016-10-27T09:41:19.190Z,15
2016-10-27T09:42:32.141Z,20
2016-10-27T09:43:45.141Z,20
2016-10-27T09:44:57.721Z,20
2016-10-27T09:46:11.699Z,25
2016-10-27T09:47:23.780Z,25
2016-10-27T09:48:36.856Z,25
2016-10-27T09:49:49.410Z,15
2016-10-27T09:51:02.573Z,15
2016-10-27T09:52:15.534Z,15
2016-10-27T09:53:29.011Z,15
2016-10-27T09:54:42.012Z,15
2016-10-27T09:55:53.999Z,15
2016-10-27T09:57:07.247Z,15
2016-10-27T09:58:21.669Z,15
2016-10-27T09:59:34.107Z,30
2016-10-27T10:00:47.089Z,30
2016-10-27T10:01:59.148Z,30
2016-10-27T10:03:18.304Z,30
2016-10-27T10:04:34.759Z,30
2016-10-27T10:05:49.877Z,15
2016-10-27T10:07:03.531Z,30
2016-10-27T10:08:15.506Z,35
2016-10-27T10:09:29.035Z,35
2016-10-27T10:10:41.532Z,35
2016-10-27T10:11:53.644Z,35
2016-10-27T10:13:06.788Z,35
2016-10-27T10:14:19.383Z,35
2016-10-27T10:15:31.827Z,35
2016-10-27T10:16:45.398Z,35
2016-10-27T10:17:58.889Z,35
2016-10-27T10:19:11.315Z,35
2016-10-27T10:20:24.216Z,35
2016-10-27T10:21:36.712Z,35
2016-10-27T10:22:49.714Z,40
2016-10-27T10:24:02.467Z,40
2016-10-27T10:25:15.417Z,40
2016-10-27T10:26:29.042Z,45
2016-10-27T10:27:42.111Z,45
2016-10-27T10:28:54.092Z,45
2016-10-27T10:30:09.129Z,45
2016-10-27T10:31:23.016Z,50
2016-10-27T10:32:35.569Z,50
2016-10-27T10:33:48.053Z,50
2016-10-27T10:35:00.154Z,50
2016-10-27T10:36:12.589Z,50
2016-10-27T10:37:24.566Z,50
2016-10-27T10:38:38.092Z,30
2016-10-27T10:39:51.135Z,30
2016-10-27T10:41:03.647Z,30
2016-10-27T10:42:16.149Z,30
2016-10-27T10:43:28.621Z,30
2016-10-27T10:44:40.117Z,30
2016-10-27T10:45:52.729Z,25
2016-10-27T10:47:06.292Z,25
2016-10-27T10:48:19.483Z,25
2016-10-27T10:49:33.029Z,25
2016-10-27T10:50:46.707Z,45
2016-10-27T10:51:59.729Z,45
2016-10-27T10:53:12.775Z,45
2016-10-27T10:54:25.350Z,50
2016-10-27T10:55:38.845Z,30
2016-10-27T10:56:52.922Z,55
2016-10-27T10:58:05.641Z,60
2016-10-27T10:59:19.024Z,40
2016-10-27T11:00:33.633Z,45
2016-10-27T11:01:50.017Z,45
2016-10-27T11:03:02.875Z,45
2016-10-27T11:04:16.510Z,45
2016-10-27T11:05:29.318Z,40
2016-10-27T11:06:42.545Z,40
2016-10-27T11:07:56.219Z,40
2016-10-27T11:09:09.149Z,40
2016-10-27T11:10:22.794Z,35
2016-10-27T11:11:35.890Z,35
2016-10-27T11:12:49.054Z,65
2016-10-27T11:14:02.351Z,65
2016-10-27T11:15:15.361Z,65
2016-10-27T11:16:29.029Z,40
2016-10-27T11:17:42.689Z,40
2016-10-27T11:18:54.707Z,65
2016-10-27T11:20:08.288Z,65
2016-10-27T11:21:21.308Z,65
2016-10-27T11:22:33.911Z,65
2016-10-27T11:23:46.547Z,45
2016-10-27T11:24:59.145Z,45
2016-10-27T11:26:12.113Z,45
2016-10-27T11:27:25.132Z,45
2016-10-27T11:28:37.654Z,45
2016-10-27T11:29:50.663Z,65
2016-10-27T11:31:04.390Z,65
2016-10-27T11:32:16.944Z,70
2016-10-27T11:33:29.943Z,60
2016-10-27T11:34:43.144Z,40
2016-10-27T11:35:55.613Z,40
2016-10-27T11:37:07.675Z,35
2016-10-27T11:38:19.640Z,40
2016-10-27T11:39:31.701Z,45
2016-10-27T11:40:44.774Z,45
2016-10-27T11:41:57.270Z,50
2016-10-27T11:43:09.784Z,50
2016-10-27T11:44:21.273Z,50
2016-10-27T11:45:33.371Z,50
2016-10-27T11:46:46.088Z,55
2016-10-27T11:47:59.671Z,55
2016-10-27T11:49:12.354Z,60
2016-10-27T11:50:25.649Z,55
2016-10-27T11:51:38.636Z,50
2016-10-27T11:54:35.351Z,100
2016-10-27T11:55:47.388Z,110
2016-10-27T11:57:01.179Z,115
2016-10-27T11:58:13.146Z,125
2016-10-27T11:59:25.219Z,130
2016-10-27T12:00:37.534Z,135
2016-10-27T12:01:50.906Z,135
2016-10-27T12:03:03.905Z,135
2016-10-27T12:04:16.051Z,155
2016-10-27T12:05:28.533Z,160
2016-10-27T12:06:41.639Z,155
2016-10-27T12:07:54.030Z,165
2016-10-27T12:09:06.668Z,150
2016-10-27T12:10:18.098Z,130
2016-10-27T12:11:31.173Z,130
2016-10-27T12:12:43.161Z,130
2016-10-27T12:13:55.171Z,160
2016-10-27T12:15:08.253Z,165
2016-10-27T12:16:20.304Z,200
2016-10-27T12:17:32.506Z,165
2016-10-27T12:18:45.052Z,125
2016-10-27T12:19:57.641Z,125
2016-10-27T12:21:10.112Z,135
2016-10-27T12:22:23.903Z,115
2016-10-27T12:23:36.892Z,110
2016-10-27T12:24:49.380Z,125
2016-10-27T12:26:01.909Z,155
2016-10-27T12:27:15.566Z,160
2016-10-27T12:28:28.849Z,115
2016-10-27T12:29:41.988Z,125
2016-10-27T12:30:52.947Z,125
2016-10-27T12:32:04.681Z,200
2016-10-27T12:33:16.714Z,180
2016-10-27T12:34:28.698Z,185
2016-10-27T12:35:41.960Z,170
2016-10-27T12:36:54.958Z,150
2016-10-27T12:38:07.531Z,140
2016-10-27T12:39:20.066Z,125
2016-10-27T12:40:32.658Z,125
2016-10-27T12:41:44.585Z,135
2016-10-27T12:42:57.339Z,160
2016-10-27T12:44:10.465Z,180
2016-10-27T12:45:24.281Z,110
